Time;durP1;ratioP1;P1;durP2;ratioP2;P2;SDS_P1;SDS_P2;PMS_P1;PMS_P2;Temp;Humidity;BMP_temperature;BMP_pressure;BME280_temperature;BME280_humidity;BME280_pressure;Samples;Min_cycle;Max_cycle;Signal;HPM_P1;HPM_P2
2023/04/21 00:00:46;;;;;;;31.03;26.10;;;9.90;99.90;;;;;;5003981;28;20073;-71
2023/04/21 00:03:11;;;;;;;33.88;26.45;;;9.90;99.90;;;;;;4983791;28;20358;-71
2023/04/21 00:05:41;;;;;;;31.20;26.65;;;9.90;99.90;;;;;;4978738;28;20050;-71
2023/04/21 00:08:07;;;;;;;30.30;26.35;;;9.90;99.90;;;;;;5000542;28;20571;-72
2023/04/21 00:10:36;;;;;;;31.63;25.48;;;9.80;99.90;;;;;;5008011;28;20046;-71
2023/04/21 00:13:01;;;;;;;28.75;25.48;;;9.90;99.90;;;;;;5008617;28;20092;-71
2023/04/21 00:15:27;;;;;;;31.38;25.20;;;9.80;99.90;;;;;;5008556;28;20050;-71
2023/04/21 00:17:53;;;;;;;32.05;24.73;;;9.80;99.90;;;;;;5007710;28;20038;-72
2023/04/21 00:20:18;;;;;;;28.95;24.67;;;9.90;99.90;;;;;;5001148;28;20037;-72
2023/04/21 00:22:44;;;;;;;28.17;23.83;;;9.90;99.90;;;;;;4994445;28;20069;-72
2023/04/21 00:25:10;;;;;;;34.83;25.17;;;9.90;99.90;;;;;;5001217;28;20038;-70
2023/04/21 00:27:35;;;;;;;30.02;24.30;;;9.90;99.90;;;;;;4979772;28;20532;-71
2023/04/21 00:30:01;;;;;;;28.48;23.95;;;9.80;99.90;;;;;;4980956;28;20042;-71
2023/04/21 00:32:26;;;;;;;27.23;23.48;;;9.80;99.90;;;;;;4997316;28;20037;-71
2023/04/21 00:34:52;;;;;;;28.52;24.10;;;9.80;99.90;;;;;;4989847;28;20065;-70
2023/04/21 00:37:18;;;;;;;27.33;22.80;;;9.80;99.90;;;;;;4999842;28;20044;-72
2023/04/21 00:39:49;;;;;;;26.38;22.67;;;9.80;99.90;;;;;;5002192;28;20130;-73
2023/04/21 00:42:18;;;;;;;30.02;22.95;;;9.80;99.90;;;;;;5005635;28;20122;-71
2023/04/21 00:44:43;;;;;;;27.02;22.88;;;9.70;99.90;;;;;;4994810;28;20131;-72
2023/04/21 00:47:09;;;;;;;27.15;22.45;;;9.70;99.90;;;;;;4997297;28;20124;-71
2023/04/21 00:49:35;;;;;;;26.20;20.70;;;9.70;99.90;;;;;;4999595;28;20061;-71
2023/04/21 00:52:04;;;;;;;27.73;22.92;;;9.70;99.90;;;;;;5000000;28;20054;-71
2023/04/21 00:54:30;;;;;;;26.23;21.15;;;9.70;99.90;;;;;;5003907;28;20042;-71
2023/04/21 00:56:57;;;;;;;26.35;21.40;;;9.70;99.90;;;;;;5001117;28;20049;-71
2023/04/21 00:59:23;;;;;;;27.52;21.23;;;9.70;99.90;;;;;;4999783;28;20081;-70
2023/04/21 01:01:51;;;;;;;26.40;21.23;;;9.60;99.90;;;;;;4995666;28;20429;-71
2023/04/21 01:04:17;;;;;;;27.15;20.27;;;9.60;99.90;;;;;;4997902;28;20064;-70
2023/04/21 01:06:43;;;;;;;23.10;19.80;;;9.70;99.90;;;;;;5001396;28;20405;-72
2023/04/21 01:09:11;;;;;;;25.20;20.25;;;9.60;99.90;;;;;;5000339;28;20050;-71
2023/04/21 01:11:37;;;;;;;23.33;19.67;;;9.70;99.90;;;;;;4997364;28;20049;-71
2023/04/21 01:14:04;;;;;;;24.17;20.15;;;9.60;99.90;;;;;;4999668;28;20041;-72
2023/04/21 01:16:32;;;;;;;26.00;19.73;;;9.70;99.90;;;;;;4998588;28;20584;-71
2023/04/21 01:18:59;;;;;;;23.98;19.45;;;9.70;99.90;;;;;;4982092;28;20390;-72
2023/04/21 01:21:26;;;;;;;20.13;18.02;;;9.70;99.90;;;;;;4982393;28;20052;-72
2023/04/21 01:23:52;;;;;;;22.27;19.37;;;9.70;99.90;;;;;;5001579;28;20125;-70
2023/04/21 01:26:21;;;;;;;22.83;19.52;;;9.70;99.90;;;;;;5001623;28;20085;-72
2023/04/21 01:28:47;;;;;;;22.90;18.80;;;9.70;99.90;;;;;;5000365;28;20149;-72
2023/04/21 01:31:17;;;;;;;22.23;18.60;;;9.80;99.90;;;;;;5001139;28;20046;-72
2023/04/21 01:33:46;;;;;;;20.48;18.23;;;9.70;99.90;;;;;;4997149;28;20145;-70
2023/04/21 01:36:15;;;;;;;20.83;17.77;;;9.70;99.90;;;;;;4996717;28;20054;-71
2023/04/21 01:38:41;;;;;;;26.13;18.77;;;9.70;99.90;;;;;;5002051;28;20042;-71
2023/04/21 01:41:08;;;;;;;21.70;17.70;;;9.70;99.90;;;;;;5001040;28;20054;-72
2023/04/21 01:43:34;;;;;;;22.13;18.27;;;9.70;99.90;;;;;;4981804;28;20046;-71
2023/04/21 01:46:00;;;;;;;21.33;17.30;;;9.70;99.90;;;;;;5001520;28;20085;-71
2023/04/21 01:48:25;;;;;;;20.67;17.42;;;9.70;99.90;;;;;;4994656;28;20504;-71
2023/04/21 01:50:51;;;;;;;21.92;16.67;;;9.70;99.90;;;;;;4998430;28;20501;-70
2023/04/21 01:53:17;;;;;;;20.23;16.38;;;9.80;99.90;;;;;;4997589;28;20053;-71
2023/04/21 01:55:42;;;;;;;20.38;17.00;;;9.80;99.90;;;;;;4997456;28;20062;-71
2023/04/21 01:58:08;;;;;;;19.48;15.90;;;9.80;99.90;;;;;;5002473;28;20064;-70
2023/04/21 02:00:34;;;;;;;19.02;16.42;;;9.80;99.90;;;;;;5000873;28;20058;-71
2023/04/21 02:03:00;;;;;;;20.90;16.48;;;9.90;99.90;;;;;;4997490;28;20069;-71
2023/04/21 02:05:25;;;;;;;21.27;16.60;;;9.90;99.90;;;;;;4993412;28;20057;-71
2023/04/21 02:07:51;;;;;;;20.20;15.93;;;9.80;99.90;;;;;;4975487;28;20061;-70
2023/04/21 02:10:16;;;;;;;19.23;15.60;;;9.80;99.90;;;;;;4995191;28;20047;-70
2023/04/21 02:12:42;;;;;;;19.70;15.90;;;9.90;99.90;;;;;;4998938;28;20096;-71
2023/04/21 02:15:08;;;;;;;20.95;16.85;;;9.90;99.90;;;;;;5003090;28;20073;-72
2023/04/21 02:17:35;;;;;;;23.00;16.48;;;9.90;99.90;;;;;;5000203;28;20065;-72
2023/04/21 02:20:00;;;;;;;18.63;15.32;;;9.90;99.90;;;;;;4997983;28;20401;-72
2023/04/21 02:22:29;;;;;;;18.05;15.48;;;9.90;99.90;;;;;;4993037;28;20168;-74
2023/04/21 02:24:54;;;;;;;23.00;14.77;;;9.90;99.90;;;;;;5002673;28;20132;-72
2023/04/21 02:27:20;;;;;;;19.42;16.23;;;9.90;99.90;;;;;;5003861;28;20956;-70
2023/04/21 02:29:46;;;;;;;20.15;15.63;;;9.90;99.90;;;;;;4999789;28;20049;-72
2023/04/21 02:32:11;;;;;;;19.42;15.35;;;9.90;99.90;;;;;;5000739;28;20104;-72
2023/04/21 02:34:37;;;;;;;21.33;15.63;;;9.80;99.90;;;;;;5003109;28;20698;-71
2023/04/21 02:37:03;;;;;;;18.00;14.50;;;9.80;99.90;;;;;;4992009;28;20046;-72
2023/04/21 02:39:29;;;;;;;20.67;15.13;;;9.80;99.90;;;;;;4982457;28;20125;-72
2023/04/21 02:41:55;;;;;;;17.85;14.65;;;9.80;99.90;;;;;;4999044;28;20041;-72
2023/04/21 02:44:21;;;;;;;19.90;14.77;;;9.80;99.90;;;;;;5000468;28;20037;-72
2023/04/21 02:46:46;;;;;;;20.88;15.93;;;9.80;99.90;;;;;;4999011;28;20038;-72
2023/04/21 02:49:12;;;;;;;19.20;15.07;;;9.80;99.90;;;;;;4997233;28;20046;-72
2023/04/21 02:51:38;;;;;;;17.73;14.82;;;9.80;99.90;;;;;;5003285;28;20054;-72
2023/04/21 02:54:06;;;;;;;19.85;14.90;;;9.70;99.90;;;;;;5006792;28;20069;-71
2023/04/21 02:56:33;;;;;;;18.92;14.63;;;9.80;99.90;;;;;;5002880;28;20090;-72
2023/04/21 02:58:59;;;;;;;20.33;15.70;;;9.70;99.90;;;;;;5006188;28;20049;-72
2023/04/21 03:01:25;;;;;;;20.13;14.90;;;9.70;99.90;;;;;;5004027;28;20033;-70
2023/04/21 03:03:50;;;;;;;18.48;15.32;;;9.70;99.90;;;;;;5003610;28;20120;-73
2023/04/21 03:06:16;;;;;;;19.83;15.15;;;9.70;99.90;;;;;;4984228;28;20045;-72
2023/04/21 03:08:42;;;;;;;20.92;15.05;;;9.70;99.90;;;;;;4997539;28;20157;-72
2023/04/21 03:11:07;;;;;;;20.05;14.57;;;9.70;99.90;;;;;;5007375;28;20053;-71
2023/04/21 03:13:33;;;;;;;20.17;14.60;;;9.80;99.90;;;;;;5002482;28;20397;-72
2023/04/21 03:15:58;;;;;;;19.60;14.35;;;9.70;99.90;;;;;;4999855;28;20037;-71
2023/04/21 03:18:24;;;;;;;18.80;14.18;;;9.70;99.90;;;;;;5001200;28;20038;-71
2023/04/21 03:20:50;;;;;;;18.95;15.00;;;9.60;99.90;;;;;;5005524;28;20046;-72
2023/04/21 03:23:19;;;;;;;21.58;15.57;;;9.60;99.90;;;;;;5008501;28;20042;-72
2023/04/21 03:25:44;;;;;;;20.08;13.63;;;9.60;99.90;;;;;;4997419;28;20046;-72
2023/04/21 03:28:28;;;;;;;21.08;15.35;;;9.60;99.90;;;;;;4982255;28;20485;-72
2023/04/21 03:30:54;;;;;;;18.83;15.23;;;9.60;99.90;;;;;;5004014;28;20049;-71
2023/04/21 03:33:26;;;;;;;21.02;14.52;;;9.60;99.90;;;;;;5003616;28;20037;-71
2023/04/21 03:35:51;;;;;;;20.77;14.95;;;9.60;99.90;;;;;;5002217;28;20049;-72
2023/04/21 03:38:17;;;;;;;18.40;15.27;;;9.60;99.90;;;;;;4999343;28;20046;-72
2023/04/21 03:40:43;;;;;;;17.60;15.05;;;9.60;99.90;;;;;;5001323;28;20124;-71
2023/04/21 03:43:08;;;;;;;21.17;14.63;;;9.60;99.90;;;;;;5006372;28;20457;-71
2023/04/21 03:45:34;;;;;;;17.27;14.35;;;9.60;99.90;;;;;;5005393;28;20042;-71
2023/04/21 03:48:00;;;;;;;20.65;14.25;;;9.60;99.90;;;;;;5003619;28;20049;-71
2023/04/21 03:50:26;;;;;;;20.30;14.20;;;9.60;99.90;;;;;;5003230;28;20385;-71
2023/04/21 03:52:51;;;;;;;20.30;14.77;;;9.70;99.90;;;;;;5002492;28;20046;-72
2023/04/21 03:55:17;;;;;;;21.83;14.93;;;9.60;99.90;;;;;;4980538;28;20718;-71
2023/04/21 03:57:43;;;;;;;18.17;14.40;;;9.70;99.90;;;;;;5004317;28;20042;-71
2023/04/21 04:00:10;;;;;;;21.10;14.13;;;9.70;99.90;;;;;;5002916;28;20141;-72
2023/04/21 04:02:36;;;;;;;18.98;14.65;;;9.70;99.90;;;;;;5000644;28;20069;-71
2023/04/21 04:05:02;;;;;;;22.55;15.07;;;9.70;99.90;;;;;;4997959;28;20034;-71
2023/04/21 04:07:28;;;;;;;25.40;14.55;;;9.70;99.90;;;;;;4998934;28;20117;-71
2023/04/21 04:09:54;;;;;;;19.45;14.52;;;9.60;99.90;;;;;;4983326;28;20684;-71
2023/04/21 04:12:20;;;;;;;21.13;14.25;;;9.70;99.90;;;;;;4982929;28;20124;-72
2023/04/21 04:14:45;;;;;;;22.02;14.10;;;9.60;99.90;;;;;;5003039;28;20045;-71
2023/04/21 04:17:11;;;;;;;18.90;14.10;;;9.50;99.90;;;;;;4985335;28;20061;-72
2023/04/21 04:19:36;;;;;;;20.23;14.80;;;9.60;99.90;;;;;;4996021;28;20056;-72
2023/04/21 04:22:02;;;;;;;16.42;14.13;;;9.60;99.90;;;;;;5001560;28;20327;-71
2023/04/21 04:24:28;;;;;;;18.73;14.05;;;9.50;99.90;;;;;;4999765;28;20084;-72
2023/04/21 04:26:58;;;;;;;15.63;13.75;;;9.50;99.90;;;;;;5003352;28;20089;-71
2023/04/21 04:29:25;;;;;;;17.35;13.73;;;9.50;99.90;;;;;;4987497;28;20041;-73
2023/04/21 04:31:51;;;;;;;21.70;14.68;;;9.50;99.90;;;;;;4995633;28;20049;-71
2023/04/21 04:34:17;;;;;;;19.17;14.70;;;9.50;99.90;;;;;;4998845;28;20745;-72
2023/04/21 04:36:44;;;;;;;21.90;14.48;;;9.50;99.90;;;;;;4997611;28;20034;-71
2023/04/21 04:39:11;;;;;;;24.33;13.75;;;9.50;99.90;;;;;;4999532;28;20050;-71
2023/04/21 04:41:37;;;;;;;18.85;13.98;;;9.50;99.90;;;;;;4998991;28;20053;-71
2023/04/21 04:44:03;;;;;;;21.83;14.38;;;9.50;99.90;;;;;;5004334;28;20046;-71
2023/04/21 04:46:30;;;;;;;16.90;14.43;;;9.50;99.90;;;;;;4977582;28;20042;-72
2023/04/21 04:48:55;;;;;;;17.88;14.68;;;9.40;99.90;;;;;;4999803;28;20039;-71
2023/04/21 04:51:22;;;;;;;17.63;14.05;;;9.40;99.90;;;;;;5000744;28;20038;-70
2023/04/21 04:53:48;;;;;;;17.85;12.98;;;9.50;99.90;;;;;;4977190;28;20061;-71
2023/04/21 04:56:14;;;;;;;20.13;14.13;;;9.40;99.90;;;;;;4993112;28;20052;-72
2023/04/21 04:58:39;;;;;;;17.67;13.95;;;9.50;99.90;;;;;;5003411;28;20050;-71
2023/04/21 05:01:15;;;;;;;17.25;13.80;;;9.50;99.90;;;;;;5003967;28;20045;-70
2023/04/21 05:03:41;;;;;;;20.17;13.98;;;9.50;99.90;;;;;;5000408;28;20440;-71
2023/04/21 05:06:07;;;;;;;18.60;13.65;;;9.50;99.90;;;;;;5003216;28;20048;-73
2023/04/21 05:08:33;;;;;;;18.27;13.75;;;9.50;99.90;;;;;;4998828;28;20042;-71
2023/04/21 05:10:58;;;;;;;19.02;14.55;;;9.50;99.90;;;;;;5000904;28;20038;-71
2023/04/21 05:13:24;;;;;;;18.73;13.65;;;9.60;99.90;;;;;;4997979;28;20088;-70
2023/04/21 05:15:55;;;;;;;21.13;13.68;;;9.60;99.90;;;;;;5000238;28;20062;-72
2023/04/21 05:18:22;;;;;;;19.95;13.68;;;9.60;99.90;;;;;;4993096;28;20081;-72
2023/04/21 05:20:48;;;;;;;17.02;13.80;;;9.60;99.90;;;;;;5001039;28;20446;-71
2023/04/21 05:23:13;;;;;;;21.23;13.77;;;9.70;99.90;;;;;;4998739;28;20141;-71
2023/04/21 05:25:39;;;;;;;15.65;12.82;;;9.70;99.90;;;;;;5002118;28;20041;-72
2023/04/21 05:28:04;;;;;;;17.98;13.43;;;9.80;99.90;;;;;;5003478;28;20665;-71
2023/04/21 05:30:30;;;;;;;16.17;13.25;;;9.80;99.90;;;;;;4984146;28;20052;-72
2023/04/21 05:32:56;;;;;;;18.27;13.02;;;9.90;99.90;;;;;;4986561;28;20037;-70
2023/04/21 05:35:21;;;;;;;16.92;13.25;;;9.90;99.90;;;;;;5004739;28;20184;-71
2023/04/21 05:37:47;;;;;;;19.45;13.23;;;9.80;99.90;;;;;;4995960;28;20042;-73
2023/04/21 05:40:12;;;;;;;16.95;12.23;;;9.90;99.90;;;;;;4981489;28;20529;-71
2023/04/21 05:42:38;;;;;;;19.80;13.95;;;10.00;99.90;;;;;;4970798;28;20060;-72
2023/04/21 05:45:04;;;;;;;18.98;13.27;;;10.00;99.90;;;;;;4995313;28;20050;-70
2023/04/21 05:47:30;;;;;;;17.42;13.10;;;10.00;99.90;;;;;;4983241;28;20069;-71
2023/04/21 05:49:55;;;;;;;21.02;13.32;;;10.10;99.90;;;;;;4998321;28;20069;-75
2023/04/21 05:52:21;;;;;;;17.60;12.75;;;10.10;99.90;;;;;;4996620;28;20548;-70
2023/04/21 05:54:47;;;;;;;18.55;13.00;;;10.20;99.90;;;;;;4999530;28;20054;-70
2023/04/21 05:57:12;;;;;;;16.77;12.70;;;10.20;99.90;;;;;;5000933;28;20045;-68
2023/04/21 05:59:38;;;;;;;16.00;12.32;;;10.20;99.90;;;;;;5001347;28;20060;-69
2023/04/21 06:02:04;;;;;;;18.25;12.82;;;10.30;99.90;;;;;;5005860;28;20046;-69
2023/04/21 06:04:30;;;;;;;18.33;12.80;;;10.40;99.90;;;;;;4979461;28;20690;-69
2023/04/21 06:06:56;;;;;;;18.92;12.90;;;10.40;99.90;;;;;;4997296;28;20385;-70
2023/04/21 06:09:21;;;;;;;19.30;12.38;;;10.50;99.90;;;;;;4997084;28;20038;-69
2023/04/21 06:11:49;;;;;;;16.48;12.63;;;10.40;99.90;;;;;;4981653;28;20066;-70
2023/04/21 06:14:15;;;;;;;18.00;12.10;;;10.50;99.90;;;;;;5003104;28;20053;-69
2023/04/21 06:17:01;;;;;;;18.95;12.82;;;10.60;99.90;;;;;;4991661;28;20199;-72
2023/04/21 06:19:26;;;;;;;20.75;13.13;;;10.60;99.90;;;;;;4978880;28;20050;-69
2023/04/21 06:21:52;;;;;;;18.80;12.48;;;10.70;99.90;;;;;;4993446;28;20512;-69
2023/04/21 06:24:24;;;;;;;16.00;11.85;;;10.80;99.90;;;;;;4998952;28;20390;-69
2023/04/21 06:26:51;;;;;;;17.73;12.43;;;10.80;99.90;;;;;;4982093;28;20046;-69
2023/04/21 06:29:20;;;;;;;;;;;11.00;99.90;;;;;;5004328;28;20596;-70
2023/04/21 06:31:46;;;;;;;18.38;12.07;;;11.00;99.90;;;;;;4996377;28;19925;-68
2023/04/21 06:34:11;;;;;;;16.73;12.05;;;11.00;99.90;;;;;;5005037;28;20433;-70
2023/04/21 06:36:37;;;;;;;15.38;11.88;;;11.10;99.90;;;;;;5004535;28;20057;-68
2023/04/21 06:39:03;;;;;;;16.52;12.25;;;11.10;99.90;;;;;;4999552;28;20045;-70
2023/04/21 06:41:29;;;;;;;17.23;12.48;;;11.20;99.90;;;;;;4975074;28;20045;-70
2023/04/21 06:43:55;;;;;;;18.27;12.00;;;11.30;99.90;;;;;;4999003;28;20429;-69
2023/04/21 06:46:21;;;;;;;19.20;12.30;;;11.30;99.90;;;;;;4998183;28;20062;-70
2023/04/21 06:48:46;;;;;;;30.63;13.15;;;11.40;99.90;;;;;;5005033;28;20037;-70
2023/04/21 06:51:12;;;;;;;18.15;12.57;;;11.40;99.90;;;;;;5004500;28;20045;-70
2023/04/21 06:53:38;;;;;;;18.42;12.88;;;11.40;99.90;;;;;;5005060;28;20088;-70
2023/04/21 06:56:04;;;;;;;20.65;12.50;;;11.50;99.90;;;;;;5005101;28;21400;-70
2023/04/21 06:58:30;;;;;;;17.48;12.35;;;11.50;99.90;;;;;;5002115;28;20100;-70
2023/04/21 07:00:56;;;;;;;17.83;12.43;;;11.60;99.90;;;;;;5007118;28;20048;-69
2023/04/21 07:03:21;;;;;;;20.35;12.80;;;11.60;99.90;;;;;;5001377;28;20034;-71
2023/04/21 07:05:47;;;;;;;16.88;13.20;;;11.60;99.90;;;;;;5002191;28;20065;-69
2023/04/21 07:08:13;;;;;;;17.80;12.13;;;11.70;99.90;;;;;;5000833;28;20030;-68
2023/04/21 07:10:39;;;;;;;17.50;12.45;;;11.80;99.90;;;;;;4976599;28;20046;-69
2023/04/21 07:13:05;;;;;;;18.23;13.02;;;11.80;99.90;;;;;;4975884;28;20037;-70
2023/04/21 07:15:31;;;;;;;18.70;13.13;;;11.80;99.90;;;;;;5002803;28;20050;-71
2023/04/21 07:17:57;;;;;;;19.52;12.38;;;11.80;99.90;;;;;;5005233;28;20107;-72
2023/04/21 07:20:23;;;;;;;22.00;12.88;;;11.90;99.90;;;;;;5002836;28;20046;-72
2023/04/21 07:22:49;;;;;;;17.40;12.38;;;11.90;99.90;;;;;;5010399;28;20049;-70
2023/04/21 07:25:14;;;;;;;21.27;12.82;;;11.90;99.90;;;;;;5008050;28;20038;-71
2023/04/21 07:27:40;;;;;;;17.50;12.50;;;11.90;99.90;;;;;;5006090;28;20034;-72
2023/04/21 07:30:06;;;;;;;25.38;13.25;;;11.90;99.90;;;;;;5000491;28;20165;-71
2023/04/21 07:32:33;;;;;;;21.90;12.70;;;11.90;99.90;;;;;;5000476;28;20046;-68
2023/04/21 07:35:00;;;;;;;17.77;13.15;;;12.00;99.90;;;;;;5000005;28;20045;-71
2023/04/21 07:37:26;;;;;;;18.67;13.48;;;12.00;99.90;;;;;;5008722;28;20056;-70
2023/04/21 07:39:52;;;;;;;17.33;12.52;;;12.10;99.90;;;;;;5001189;28;20042;-70
2023/04/21 07:42:17;;;;;;;20.52;12.63;;;12.10;99.90;;;;;;5009542;28;20042;-72
2023/04/21 07:44:43;;;;;;;16.75;12.75;;;12.20;99.90;;;;;;4979475;28;20096;-70
2023/04/21 07:47:08;;;;;;;17.73;13.13;;;12.30;99.90;;;;;;5007999;28;20115;-73
2023/04/21 07:49:40;;;;;;;18.48;12.55;;;12.40;99.90;;;;;;4987354;28;20084;-69
2023/04/21 07:52:06;;;;;;;21.70;12.43;;;12.50;99.90;;;;;;5009396;28;20060;-69
2023/04/21 07:54:32;;;;;;;22.38;12.55;;;12.50;99.90;;;;;;5007379;28;20038;-71
2023/04/21 07:56:57;;;;;;;20.25;12.93;;;12.60;99.90;;;;;;5009861;28;20077;-72
2023/04/21 07:59:23;;;;;;;18.95;11.90;;;12.70;99.90;;;;;;5006287;28;20128;-73
2023/04/21 08:01:50;;;;;;;16.60;12.85;;;12.80;99.90;;;;;;5008556;28;20038;-71
2023/04/21 08:04:19;;;;;;;20.33;12.30;;;12.90;99.90;;;;;;5008151;28;20054;-75
2023/04/21 08:06:44;;;;;;;18.23;12.98;;;12.90;99.90;;;;;;5004073;28;20148;-74
2023/04/21 08:09:10;;;;;;;20.15;12.27;;;13.00;99.90;;;;;;4984966;28;20034;-71
2023/04/21 08:11:36;;;;;;;17.63;12.35;;;13.00;99.90;;;;;;5005502;28;20041;-73
2023/04/21 08:14:02;;;;;;;20.92;12.98;;;13.00;99.90;;;;;;5000222;28;20048;-72
2023/04/21 08:16:28;;;;;;;21.20;12.90;;;13.00;99.90;;;;;;4979619;28;20715;-71
2023/04/21 08:18:54;;;;;;;19.60;12.48;;;13.20;99.90;;;;;;5013976;28;20126;-71
2023/04/21 08:21:20;;;;;;;19.55;12.70;;;13.10;99.90;;;;;;5003412;28;20149;-72
2023/04/21 08:23:45;;;;;;;16.85;11.95;;;13.20;99.90;;;;;;4997973;28;20184;-72
2023/04/21 08:26:12;;;;;;;20.02;12.25;;;13.20;99.90;;;;;;4993748;28;20073;-71
2023/04/21 08:28:37;;;;;;;19.08;12.73;;;13.30;99.90;;;;;;5000679;28;20050;-72
2023/04/21 08:31:04;;;;;;;19.55;12.25;;;13.40;99.90;;;;;;5002141;28;20137;-72
2023/04/21 08:33:29;;;;;;;18.08;12.43;;;13.50;99.90;;;;;;4983807;28;20050;-70
2023/04/21 08:35:55;;;;;;;15.65;12.27;;;13.60;99.90;;;;;;5006081;28;20069;-72
2023/04/21 08:38:21;;;;;;;19.50;12.00;;;13.80;99.90;;;;;;5006819;28;20104;-71
2023/04/21 08:40:48;;;;;;;17.75;12.07;;;14.00;99.90;;;;;;4992788;28;20033;-71
2023/04/21 08:43:14;;;;;;;;;;;14.10;99.90;;;;;;5000569;28;20046;-71
2023/04/21 08:45:41;;;;;;;15.73;11.60;;;14.30;99.90;;;;;;5002238;28;19929;-73
2023/04/21 08:48:08;;;;;;;19.73;11.88;;;14.40;99.90;;;;;;4974419;28;20097;-71
2023/04/21 08:50:35;;;;;;;19.15;12.60;;;14.40;99.90;;;;;;5002589;28;20064;-70
2023/04/21 08:53:00;;;;;;;16.05;12.10;;;14.40;99.90;;;;;;5002424;28;20713;-72
2023/04/21 08:55:29;;;;;;;17.52;11.75;;;14.50;99.90;;;;;;5002682;28;20092;-73
2023/04/21 08:57:55;;;;;;;15.98;11.70;;;14.50;99.90;;;;;;5001526;28;20033;-72
2023/04/21 09:00:21;;;;;;;18.58;11.77;;;14.50;99.90;;;;;;4998520;28;20141;-70
2023/04/21 09:03:01;;;;;;;20.27;12.13;;;14.50;99.90;;;;;;5001075;28;20164;-70
2023/04/21 09:05:32;;;;;;;20.40;11.57;;;14.60;99.90;;;;;;4996975;28;20053;-70
2023/04/21 09:08:11;;;;;;;19.92;11.68;;;14.50;99.90;;;;;;5007447;28;20050;-71
2023/04/21 09:10:50;;;;;;;16.75;12.10;;;14.50;99.90;;;;;;5000166;28;20125;-71
2023/04/21 09:13:17;;;;;;;18.80;11.80;;;14.50;99.90;;;;;;4992249;28;20046;-70
2023/04/21 09:15:53;;;;;;;19.83;12.00;;;14.60;99.90;;;;;;4992260;28;20485;-71
2023/04/21 09:18:21;;;;;;;18.23;12.52;;;14.70;99.90;;;;;;5005976;28;20034;-70
2023/04/21 09:20:49;;;;;;;19.77;12.10;;;14.80;99.90;;;;;;4980353;28;20433;-69
2023/04/21 09:23:15;;;;;;;19.98;12.93;;;15.10;99.90;;;;;;5000535;28;20041;-69
2023/04/21 09:25:43;;;;;;;20.25;12.00;;;15.30;99.90;;;;;;5001608;28;20868;-71
2023/04/21 09:28:10;;;;;;;19.42;12.30;;;15.40;99.90;;;;;;5002224;28;20052;-71
2023/04/21 09:30:36;;;;;;;;;;;15.50;99.90;;;;;;5007275;28;20045;-70
2023/04/21 09:33:03;;;;;;;15.93;12.00;;;15.60;99.90;;;;;;5006262;28;19926;-69
2023/04/21 09:35:38;;;;;;;21.15;12.82;;;15.60;99.90;;;;;;4998994;28;20304;-68
2023/04/21 09:38:10;;;;;;;15.70;11.82;;;15.60;99.90;;;;;;5006092;28;20053;-71
2023/04/21 09:40:36;;;;;;;19.35;12.65;;;15.60;99.90;;;;;;4992674;28;20521;-69
2023/04/21 09:43:01;;;;;;;18.70;12.13;;;15.60;99.90;;;;;;4983092;28;20041;-67
2023/04/21 09:45:28;;;;;;;17.52;12.85;;;15.60;99.90;;;;;;5005552;28;20042;-71
2023/04/21 09:48:02;;;;;;;17.85;13.25;;;15.70;99.90;;;;;;5000048;28;20402;-69
2023/04/21 09:50:28;;;;;;;19.38;12.15;;;15.70;99.90;;;;;;4998522;28;20056;-71
2023/04/21 09:53:01;;;;;;;17.70;12.10;;;15.70;99.80;;;;;;5003777;28;20432;-74
2023/04/21 09:55:30;;;;;;;18.45;12.20;;;15.80;99.70;;;;;;4977781;28;20583;-73
2023/04/21 09:58:01;;;;;;;18.77;11.77;;;15.90;99.90;;;;;;5003013;28;20050;-72
2023/04/21 10:00:28;;;;;;;14.27;11.55;;;16.00;99.90;;;;;;5000007;28;20544;-70
2023/04/21 10:02:56;;;;;;;17.08;12.02;;;16.20;99.80;;;;;;4987608;28;20072;-72
2023/04/21 10:05:22;;;;;;;16.25;12.10;;;16.40;99.10;;;;;;4999327;28;20505;-72
2023/04/21 10:07:48;;;;;;;16.92;11.98;;;16.50;98.40;;;;;;5002699;28;20054;-73
2023/04/21 10:10:23;;;;;;;17.55;12.65;;;16.60;96.70;;;;;;5010541;28;20117;-72
2023/04/21 10:12:50;;;;;;;16.13;12.55;;;16.60;95.50;;;;;;5005389;28;20069;-72
2023/04/21 10:15:40;;;;;;;17.90;12.50;;;16.70;95.50;;;;;;5005013;28;20041;-73
2023/04/21 10:18:20;;;;;;;21.23;13.30;;;16.70;95.10;;;;;;4997674;28;20109;-70
2023/04/21 10:20:57;;;;;;;17.02;12.65;;;16.70;94.80;;;;;;5004270;28;20105;-73
2023/04/21 10:23:36;;;;;;;14.90;12.30;;;16.80;94.20;;;;;;5006953;28;20045;-71
2023/04/21 10:26:23;;;;;;;17.58;12.90;;;16.80;94.50;;;;;;5006624;28;20056;-74
2023/04/21 10:28:52;;;;;;;;;;;16.90;94.60;;;;;;5005329;28;20050;-74
2023/04/21 10:31:51;;;;;;;18.02;11.88;;;17.00;95.00;;;;;;4986242;28;19925;-73
2023/04/21 10:34:27;;;;;;;20.42;12.38;;;17.00;93.70;;;;;;5006121;28;20037;-73
2023/04/21 10:36:53;;;;;;;15.70;12.45;;;17.10;93.80;;;;;;4981098;28;20064;-73
2023/04/21 10:39:25;;;;;;;20.95;12.93;;;17.20;93.90;;;;;;5008982;28;20116;-73
2023/04/21 10:41:53;;;;;;;17.77;12.05;;;17.30;93.30;;;;;;5007212;28;20103;-75
2023/04/21 10:44:21;;;;;;;18.48;12.13;;;17.40;92.40;;;;;;4996372;28;20393;-74
2023/04/21 10:46:51;;;;;;;;;;;17.50;92.30;;;;;;5010898;28;20054;-73
2023/04/21 10:49:21;;;;;;;16.38;11.70;;;17.70;92.40;;;;;;5005168;28;20429;-74
2023/04/21 10:51:58;;;;;;;17.80;11.50;;;17.70;91.50;;;;;;4993346;28;20045;-74
2023/04/21 10:55:02;;;;;;;16.05;10.63;;;17.70;90.00;;;;;;5010380;28;20045;-75
2023/04/21 10:57:32;;;;;;;17.00;10.63;;;17.80;89.30;;;;;;5006738;28;20189;-74
2023/04/21 10:59:58;;;;;;;21.05;11.43;;;17.80;88.90;;;;;;5005396;28;20042;-73
2023/04/21 11:02:23;;;;;;;86.75;15.10;;;18.00;88.20;;;;;;5007481;28;20042;-73
2023/04/21 11:04:50;;;;;;;17.83;11.52;;;18.10;86.30;;;;;;5002097;28;20113;-71
2023/04/21 11:07:19;;;;;;;13.98;9.93;;;18.20;85.50;;;;;;5002952;28;20115;-72
2023/04/21 11:09:57;;;;;;;15.30;10.15;;;18.30;86.60;;;;;;4980377;28;20041;-73
2023/04/21 11:12:29;;;;;;;12.38;9.73;;;18.40;87.20;;;;;;4993914;28;20562;-72
2023/04/21 11:14:55;;;;;;;16.20;10.40;;;18.60;84.60;;;;;;5003917;28;20077;-74
2023/04/21 11:17:23;;;;;;;16.02;10.70;;;18.50;83.40;;;;;;4986232;28;20125;-74
2023/04/21 11:19:51;;;;;;;16.70;9.15;;;18.50;82.60;;;;;;4985867;28;20104;-73
2023/04/21 11:22:18;;;;;;;13.68;8.90;;;18.50;82.60;;;;;;4995493;28;20081;-73
2023/04/21 11:24:45;;;;;;;17.88;9.70;;;18.50;82.10;;;;;;5002949;28;20060;-71
2023/04/21 11:27:12;;;;;;;13.70;9.02;;;18.60;82.10;;;;;;5004003;28;20046;-71
2023/04/21 11:29:39;;;;;;;15.40;9.18;;;18.60;80.90;;;;;;4994578;28;20045;-72
2023/04/21 11:32:08;;;;;;;19.65;8.80;;;18.60;80.00;;;;;;5005424;28;20050;-71
2023/04/21 11:34:37;;;;;;;13.20;7.93;;;18.70;80.20;;;;;;4998042;28;20037;-71
2023/04/21 11:37:09;;;;;;;11.77;9.00;;;18.90;80.00;;;;;;5007418;28;20053;-70
2023/04/21 11:39:38;;;;;;;17.17;8.35;;;19.10;78.60;;;;;;5005249;28;20061;-71
2023/04/21 11:42:04;;;;;;;13.40;8.30;;;19.20;77.20;;;;;;5007761;28;20042;-69
2023/04/21 11:44:40;;;;;;;13.45;8.57;;;19.30;75.50;;;;;;4988718;28;20072;-72
2023/04/21 11:47:17;;;;;;;16.77;9.02;;;19.30;74.50;;;;;;5001417;28;20081;-72
2023/04/21 11:49:54;;;;;;;16.02;8.48;;;19.30;75.00;;;;;;4985606;28;20045;-73
2023/04/21 11:52:36;;;;;;;12.90;8.02;;;19.20;74.10;;;;;;4980458;28;20033;-73
2023/04/21 11:55:03;;;;;;;12.88;7.10;;;19.30;73.70;;;;;;5008275;28;20543;-73
2023/04/21 11:57:35;;;;;;;10.20;7.35;;;19.30;73.80;;;;;;5001067;28;20125;-70
2023/04/21 12:00:03;;;;;;;16.38;7.70;;;19.40;73.90;;;;;;4998682;28;20042;-71
2023/04/21 12:02:30;;;;;;;14.85;6.72;;;19.50;73.20;;;;;;5002922;28;20041;-69
2023/04/21 12:05:00;;;;;;;;;;;19.70;70.70;;;;;;4981256;28;20060;-69
2023/04/21 12:07:51;;;;;;;13.27;6.30;;;19.60;71.10;;;;;;4986989;28;20009;-70
2023/04/21 12:10:20;;;;;;;14.75;6.45;;;19.40;67.70;;;;;;4998275;28;20720;-69
2023/04/21 12:12:47;;;;;;;14.38;6.45;;;19.30;69.10;;;;;;5003979;28;20041;-72
2023/04/21 12:15:22;;;;;;;14.70;6.80;;;19.20;68.80;;;;;;5002394;28;20092;-72
2023/04/21 12:17:53;;;;;;;13.40;6.15;;;19.10;68.60;;;;;;5003592;28;20045;-70
2023/04/21 12:20:21;;;;;;;10.57;6.55;;;19.00;68.30;;;;;;5005926;28;20492;-72
2023/04/21 12:22:47;;;;;;;13.20;6.32;;;18.90;67.30;;;;;;5007913;28;20094;-72
2023/04/21 12:25:14;;;;;;;12.85;6.05;;;18.80;67.20;;;;;;5003936;28;20061;-71
2023/04/21 12:27:56;;;;;;;10.93;6.38;;;18.80;66.70;;;;;;5006805;28;20591;-71
2023/04/21 12:30:22;;;;;;;11.85;6.35;;;18.70;66.00;;;;;;4996693;28;20034;-72
2023/04/21 12:32:54;;;;;;;13.07;6.07;;;18.70;68.10;;;;;;5004185;28;20069;-73
2023/04/21 12:35:21;;;;;;;11.75;5.43;;;18.60;66.20;;;;;;5000841;28;20042;-72